Time;durP1;ratioP1;P1;durP2;ratioP2;P2;SDS_P1;SDS_P2;PMS_P1;PMS_P2;Temp;Humidity;BMP_temperature;BMP_pressure;BME280_temperature;BME280_humidity;BME280_pressure;Samples;Min_cycle;Max_cycle;Signal;HPM_P1;HPM_P2
2022/06/15 00:01:02;;;;;;;4.07;3.53;;;23.20;67.20;;;;;;5073525;28;20044;-38
2022/06/15 00:03:30;;;;;;;4.82;3.50;;;23.20;67.40;;;;;;5072736;28;20085;-39
2022/06/15 00:06:10;;;;;;;5.03;3.42;;;23.20;67.80;;;;;;5077069;28;20059;-38
2022/06/15 00:08:37;;;;;;;3.42;3.13;;;23.30;68.10;;;;;;5075822;28;20099;-38
2022/06/15 00:11:29;;;;;;;4.40;3.30;;;23.30;68.20;;;;;;5079609;28;20029;-38
2022/06/15 00:13:58;;;;;;;3.28;2.97;;;23.30;68.20;;;;;;5068372;28;20296;-39
2022/06/15 00:16:24;;;;;;;3.88;3.47;;;23.30;68.20;;;;;;5082919;28;20035;-39
2022/06/15 00:18:52;;;;;;;3.78;3.13;;;23.30;68.70;;;;;;5081224;28;20048;-38
2022/06/15 00:21:18;;;;;;;;;;;23.30;68.40;;;;;;5078354;28;20032;-38
2022/06/15 00:23:44;;;;;;;3.60;3.10;;;23.30;68.60;;;;;;5060000;28;19912;-39
2022/06/15 00:26:10;;;;;;;5.45;3.72;;;23.30;68.50;;;;;;5062341;28;20033;-38
2022/06/15 00:28:36;;;;;;;5.28;3.67;;;23.20;68.80;;;;;;5061207;28;20021;-38
2022/06/15 00:31:03;;;;;;;3.67;3.33;;;23.30;68.50;;;;;;5061859;28;20021;-40
2022/06/15 00:33:29;;;;;;;3.65;3.30;;;23.30;68.40;;;;;;5061009;28;20017;-39
2022/06/15 00:36:06;;;;;;;3.67;3.10;;;23.20;68.20;;;;;;5062936;28;20052;-39
2022/06/15 00:38:34;;;;;;;4.00;3.60;;;23.20;68.30;;;;;;5072245;28;20059;-39
2022/06/15 00:41:01;;;;;;;2.92;2.50;;;23.20;68.50;;;;;;5059435;28;20100;-37
2022/06/15 00:43:50;;;;;;;4.37;3.30;;;23.20;64.70;;;;;;5054334;28;20021;-38
2022/06/15 00:46:23;;;;;;;4.07;2.70;;;23.20;65.10;;;;;;5054376;28;20039;-38
2022/06/15 00:48:51;;;;;;;6.88;3.10;;;23.20;67.20;;;;;;5055601;28;20029;-39
2022/06/15 00:51:17;;;;;;;3.72;3.22;;;23.10;65.40;;;;;;5055610;28;20398;-39
2022/06/15 00:53:43;;;;;;;6.57;3.25;;;23.00;66.80;;;;;;5055811;28;20025;-40
2022/06/15 00:56:10;;;;;;;4.57;3.25;;;23.00;68.10;;;;;;5050961;28;20043;-39
2022/06/15 00:58:37;;;;;;;3.40;3.05;;;23.00;69.50;;;;;;5054574;28;20037;-39
2022/06/15 01:01:05;;;;;;;4.97;3.30;;;23.10;71.50;;;;;;5053643;28;20055;-39
2022/06/15 01:03:31;;;;;;;4.97;3.13;;;23.10;73.60;;;;;;5055696;28;20059;-39
2022/06/15 01:06:16;;;;;;;5.88;3.50;;;23.10;73.50;;;;;;5053792;28;20033;-39
2022/06/15 01:09:21;;;;;;;4.57;2.67;;;23.20;73.60;;;;;;5054815;28;20045;-39
2022/06/15 01:12:09;;;;;;;5.72;4.25;;;23.20;72.80;;;;;;5045665;28;20033;-42
2022/06/15 01:14:57;;;;;;;5.85;3.83;;;23.20;76.10;;;;;;5050863;28;20040;-39
2022/06/15 01:17:29;;;;;;;;;;;23.20;76.90;;;;;;5043390;28;20486;-42
2022/06/15 01:20:30;;;;;;;5.72;4.18;;;23.20;80.30;;;;;;5053913;28;19913;-42
2022/06/15 01:23:14;;;;;;;7.00;4.65;;;23.20;76.60;;;;;;5068215;28;20059;-41
2022/06/15 01:26:10;;;;;;;6.43;5.30;;;23.20;78.80;;;;;;5079641;28;20075;-41
2022/06/15 01:28:40;;;;;;;5.50;4.97;;;23.20;80.70;;;;;;5054510;28;20545;-44
2022/06/15 01:31:22;;;;;;;9.13;6.30;;;23.30;81.20;;;;;;5056821;28;20069;-42
2022/06/15 01:34:22;;;;;;;7.68;5.30;;;23.30;81.30;;;;;;5056059;28;20021;-42
2022/06/15 01:37:07;;;;;;;7.65;5.65;;;23.30;82.40;;;;;;5057644;28;20624;-42
2022/06/15 01:39:51;;;;;;;7.85;5.57;;;23.30;83.40;;;;;;5053834;28;20650;-44
2022/06/15 01:42:24;;;;;;;6.57;5.55;;;23.30;82.30;;;;;;5069664;28;20029;-43
2022/06/15 01:45:00;;;;;;;8.02;6.20;;;23.20;81.10;;;;;;5053798;28;20045;-43
2022/06/15 01:47:26;;;;;;;7.40;6.40;;;23.20;81.10;;;;;;5040430;28;20025;-44
2022/06/15 01:49:57;;;;;;;6.97;5.82;;;23.20;80.30;;;;;;5055458;28;20029;-46
2022/06/15 01:52:24;;;;;;;8.57;7.68;;;23.20;79.70;;;;;;5056541;28;20421;-47
2022/06/15 01:54:55;;;;;;;9.30;8.45;;;23.20;79.90;;;;;;5054185;28;20056;-44
2022/06/15 01:57:21;;;;;;;8.85;7.72;;;23.20;79.60;;;;;;5055229;28;20022;-42
2022/06/15 02:00:05;;;;;;;10.73;9.70;;;23.20;79.40;;;;;;5054004;28;20054;-44
2022/06/15 02:02:50;;;;;;;15.00;13.70;;;23.20;78.70;;;;;;5055322;28;20390;-47
2022/06/15 02:05:31;;;;;;;15.38;13.88;;;23.20;78.10;;;;;;5055274;28;20033;-48
